Time;durP1;ratioP1;P1;durP2;ratioP2;P2;SDS_P1;SDS_P2;PMS_P1;PMS_P2;Temp;Humidity;BMP_temperature;BMP_pressure;BME280_temperature;BME280_humidity;BME280_pressure;Samples;Min_cycle;Max_cycle;Signal;HPM_P1;HPM_P2
2022/09/08 00:00:06;;;;;;;3.45;3.00;;;;;;;28.83;70.85;101034.03;5081894;28;67291;-34
2022/09/08 00:02:39;;;;;;;4.95;3.15;;;;;;;28.84;70.78;101041.09;5081131;28;70810;-34
2022/09/08 00:05:14;;;;;;;2.88;2.67;;;;;;;28.41;71.56;100973.00;5081183;28;66950;-33
2022/09/08 00:07:47;;;;;;;3.55;2.60;;;;;;;28.73;71.50;101037.13;5081967;28;71543;-33
2022/09/08 00:10:20;;;;;;;6.72;2.80;;;;;;;28.88;71.34;101061.25;5081498;27;66677;-33
2022/09/08 00:12:53;;;;;;;4.40;2.42;;;;;;;28.83;70.81;101047.53;5081028;27;71286;-33
2022/09/08 00:15:25;;;;;;;5.57;2.40;;;;;;;28.90;70.62;101061.88;5080033;27;67394;-33
2022/09/08 00:17:58;;;;;;;3.33;2.55;;;;;;;28.88;70.74;101061.25;5078863;28;69974;-33
2022/09/08 00:20:30;;;;;;;;;;;;;;;28.66;71.68;101065.09;5081202;28;66721;-34
2022/09/08 00:23:02;;;;;;;3.08;2.67;;;;;;;28.88;71.27;101066.66;5078561;27;70828;-33
2022/09/08 00:25:33;;;;;;;;;;;;;;;28.68;71.97;101066.56;5070303;28;66139;-34
2022/09/08 00:28:06;;;;;;;4.35;3.30;;;;;;;28.99;70.05;101067.09;5076772;27;70856;-35
2022/09/08 00:30:38;;;;;;;6.05;3.42;;;;;;;29.02;70.25;101072.09;5046131;28;66851;-32
2022/09/08 00:33:11;;;;;;;3.00;2.80;;;;;;;29.00;70.12;101068.75;5068468;28;69583;-33
2022/09/08 00:35:43;;;;;;;;;;;;;;;28.84;71.00;101073.50;5081126;27;66938;-33
2022/09/08 00:38:15;;;;;;;;;;;;;;;28.81;70.70;101070.38;5080216;28;68643;-33
2022/09/08 00:40:49;;;;;;;7.03;2.40;;;;;;;29.02;68.54;101072.09;5080151;27;66379;-33
2022/09/08 00:44:01;;;;;;;4.13;2.42;;;;;;;28.91;69.41;101074.34;5077210;27;70614;-32
2022/09/08 00:46:39;;;;;;;2.85;2.08;;;;;;;29.06;67.70;101067.97;5069951;27;65485;-35
2022/09/08 00:49:18;;;;;;;2.60;2.20;;;;;;;29.12;67.30;101067.19;5078447;27;71472;-36
2022/09/08 00:51:55;;;;;;;2.38;1.92;;;;;;;28.70;67.01;100998.91;5080232;28;66872;-33
2022/09/08 00:54:27;;;;;;;3.55;2.03;;;;;;;29.09;67.44;101062.19;5078571;27;69916;-34
2022/09/08 00:57:00;;;;;;;5.07;2.05;;;;;;;29.16;67.29;101073.81;5080382;27;66222;-34
2022/09/08 00:59:37;;;;;;;3.38;2.15;;;;;;;29.19;66.77;101073.41;5080484;27;70725;-34
2022/09/08 01:02:38;;;;;;;3.83;2.20;;;;;;;28.96;67.04;101061.06;5080111;27;67063;-35
2022/09/08 01:05:17;;;;;;;5.43;2.03;;;;;;;28.82;66.73;101009.94;5071353;27;70127;-34
2022/09/08 01:13:56;;;;;;;2.42;2.00;;;;;;;29.22;66.36;101067.59;5080001;28;67368;-34
2022/09/08 01:16:28;;;;;;;3.35;1.95;;;;;;;29.22;66.16;101069.47;5081354;28;70637;-34
2022/09/08 01:19:01;;;;;;;2.08;1.88;;;;;;;29.28;66.15;101087.56;5077796;28;65990;-32
2022/09/08 01:22:07;;;;;;;3.40;2.15;;;;;;;29.26;65.53;101087.78;5078604;28;70603;-33
2022/09/08 01:25:17;;;;;;;2.15;1.95;;;;;;;29.18;66.26;101088.81;5050256;28;66666;-34
2022/09/08 01:27:54;;;;;;;4.97;1.55;;;;;;;29.31;65.72;101088.00;5075534;28;70293;-34
2022/09/08 01:30:27;;;;;;;2.38;1.60;;;;;;;29.31;65.46;101085.31;5070656;28;66614;-37
2022/09/08 01:33:02;;;;;;;2.25;1.80;;;;;;;29.15;65.34;101050.56;5066561;28;70836;-35
2022/09/08 01:35:39;;;;;;;5.50;1.77;;;;;;;29.23;65.46;101063.88;5071029;28;67050;-33
2022/09/08 01:38:12;;;;;;;4.47;2.05;;;;;;;29.33;65.75;101072.41;5078142;28;70989;-33
2022/09/08 01:40:44;;;;;;;2.83;2.03;;;;;;;29.35;65.18;101073.03;5079360;28;66680;-34
2022/09/08 01:43:16;;;;;;;;;;;;;;;29.01;66.47;101070.44;5081090;28;70683;-34
2022/09/08 01:45:48;;;;;;;3.15;2.00;;;;;;;29.28;65.63;101061.41;5076244;27;65973;-33
2022/09/08 01:48:20;;;;;;;2.38;1.90;;;;;;;29.36;65.51;101066.63;5075326;28;70976;-33
2022/09/08 01:50:57;;;;;;;3.40;2.35;;;;;;;29.39;65.03;101073.44;5077018;28;66251;-34
2022/09/08 01:53:29;;;;;;;3.05;1.77;;;;;;;29.42;65.15;101077.63;5077796;27;70042;-35
2022/09/08 01:56:04;;;;;;;7.18;2.05;;;;;;;29.44;64.95;101080.94;5092653;27;66807;-34
2022/09/08 01:58:37;;;;;;;8.52;1.83;;;;;;;29.46;64.60;101077.00;5070249;27;70865;-33
2022/09/08 02:01:09;;;;;;;3.90;2.25;;;;;;;29.47;65.04;101080.53;5077517;27;66347;-35
2022/09/08 02:03:41;;;;;;;2.90;2.20;;;;;;;29.46;64.92;101078.88;5077848;28;70852;-33
2022/09/08 02:06:13;;;;;;;3.10;2.47;;;;;;;29.51;64.96;101082.63;5079717;28;67383;-34
2022/09/08 02:08:53;;;;;;;6.97;2.20;;;;;;;29.43;64.40;101072.00;5076467;27;70737;-34
2022/09/08 02:11:25;;;;;;;3.13;1.95;;;;;;;29.56;64.77;101090.09;5071520;27;66193;-34
2022/09/08 02:13:56;;;;;;;;;;;;;;;29.24;65.47;101086.31;5078347;27;70167;-33
2022/09/08 02:16:29;;;;;;;3.15;2.13;;;;;;;29.54;64.49;101086.78;5078661;27;66712;-33
2022/09/08 02:19:02;;;;;;;2.40;1.65;;;;;;;29.58;64.32;101088.84;5078981;27;69490;-34
2022/09/08 02:21:33;;;;;;;;;;;;;;;29.28;64.95;101099.22;5078585;27;67051;-34
2022/09/08 02:24:05;;;;;;;2.25;1.67;;;;;;;29.57;64.34;101091.78;5071508;28;69429;-34
2022/09/08 02:26:39;;;;;;;5.28;2.10;;;;;;;29.64;64.62;101095.34;5076624;28;66545;-34
2022/09/08 02:29:12;;;;;;;2.45;2.08;;;;;;;29.67;64.52;101089.56;5076902;28;70282;-34
2022/09/08 02:31:44;;;;;;;2.65;1.90;;;;;;;29.62;64.17;101073.91;5076983;27;66000;-34
2022/09/08 02:34:16;;;;;;;2.83;2.00;;;;;;;29.71;64.00;101082.66;5078877;28;70872;-33
2022/09/08 02:36:49;;;;;;;3.45;2.17;;;;;;;29.75;63.72;101096.59;5080480;28;66606;-34
2022/09/08 02:39:21;;;;;;;3.22;1.95;;;;;;;29.77;64.21;101100.75;5076000;27;71237;-33
2022/09/08 02:41:53;;;;;;;4.20;1.90;;;;;;;29.78;63.81;101097.03;5074906;28;66388;-34
2022/09/08 02:44:25;;;;;;;;;;;;;;;29.49;64.88;101100.91;5074870;28;70741;-35
2022/09/08 02:46:57;;;;;;;4.00;2.38;;;;;;;29.77;63.96;101089.94;5080257;28;65989;-36
2022/09/08 02:49:30;;;;;;;;;;;;;;;29.52;64.37;101094.28;5077682;27;71280;-35
2022/09/08 02:52:03;;;;;;;3.70;2.50;;;;;;;29.83;63.83;101091.81;5078379;28;67389;-33
2022/09/08 02:54:35;;;;;;;3.47;2.05;;;;;;;29.89;63.82;101086.63;5077243;27;69888;-33
2022/09/08 02:57:07;;;;;;;4.38;2.25;;;;;;;29.84;63.49;101071.03;5077781;27;66851;-34
2022/09/08 02:59:39;;;;;;;;;;;;;;;29.63;64.49;101085.56;5078738;28;70947;-33
2022/09/08 03:02:11;;;;;;;3.73;1.73;;;;;;;29.91;63.61;101081.84;5066260;27;67084;-35
2022/09/08 03:04:43;;;;;;;;;;;;;;;29.65;64.15;101086.22;5077892;27;70532;-32
2022/09/08 03:07:15;;;;;;;1.97;1.73;;;;;;;29.91;63.26;101081.84;5078713;28;66462;-33
2022/09/08 03:09:51;;;;;;;5.28;2.08;;;;;;;30.02;63.21;101090.16;5081166;28;70906;-35
2022/09/08 03:12:26;;;;;;;2.70;1.80;;;;;;;30.04;63.27;101081.84;5082379;28;64923;-33
2022/09/08 03:14:59;;;;;;;3.30;2.30;;;;;;;30.06;63.60;101083.28;5070691;28;70821;-34
2022/09/08 03:17:31;;;;;;;2.63;1.95;;;;;;;30.07;63.06;101078.72;5078235;28;66549;-32
2022/09/08 03:20:03;;;;;;;;;;;;;;;29.79;63.80;101085.16;5078941;27;70556;-34
2022/09/08 03:22:35;;;;;;;6.33;2.07;;;;;;;30.04;63.45;101082.66;5079711;28;65734;-33
2022/09/08 03:25:08;;;;;;;2.65;2.20;;;;;;;30.15;63.49;101089.31;5079201;27;70087;-33
2022/09/08 03:27:41;;;;;;;3.53;2.40;;;;;;;30.18;62.88;101078.06;5078710;28;66756;-33
2022/09/08 03:30:16;;;;;;;3.80;2.50;;;;;;;30.20;62.74;101070.56;5078103;28;70012;-34
2022/09/08 03:32:48;;;;;;;6.10;2.10;;;;;;;30.09;62.85;101046.88;5076579;28;67145;-34
2022/09/08 03:35:20;;;;;;;5.07;2.25;;;;;;;30.27;63.38;101066.00;5079884;28;69906;-34
2022/09/08 03:37:54;;;;;;;4.03;2.17;;;;;;;30.30;63.28;101063.91;5078124;28;67199;-34
2022/09/08 03:40:27;;;;;;;2.40;2.00;;;;;;;30.32;62.93;101078.91;5080237;28;70942;-33
2022/09/08 03:43:01;;;;;;;3.00;1.90;;;;;;;30.24;62.97;101050.19;5078717;28;67048;-34
2022/09/08 03:45:33;;;;;;;4.72;2.20;;;;;;;30.33;63.18;101049.97;5081063;27;70660;-34
2022/09/08 03:48:06;;;;;;;5.35;2.25;;;;;;;30.38;62.85;101053.69;5080646;27;66859;-34
2022/09/08 03:50:39;;;;;;;6.15;1.92;;;;;;;30.32;63.06;101045.59;5081179;28;70696;-33
2022/09/08 03:53:11;;;;;;;4.00;2.20;;;;;;;30.42;63.29;101041.41;5092253;27;67234;-34
2022/09/08 03:55:44;;;;;;;4.22;2.08;;;;;;;30.42;63.23;101036.00;5079106;27;69877;-34
2022/09/08 03:58:16;;;;;;;1.92;1.70;;;;;;;30.44;63.23;101039.28;5080277;28;66285;-33
2022/09/08 04:00:49;;;;;;;2.95;2.10;;;;;;;30.42;63.01;101035.13;5078928;27;70052;-35
2022/09/08 04:03:22;;;;;;;2.03;1.92;;;;;;;30.45;62.96;101035.56;5079770;28;66809;-34
2022/09/08 04:05:54;;;;;;;4.03;1.80;;;;;;;30.44;63.20;101028.47;5074652;28;70617;-35
2022/09/08 04:08:26;;;;;;;2.63;1.98;;;;;;;30.54;62.54;101038.03;5079861;28;67078;-35
2022/09/08 04:10:59;;;;;;;6.70;2.47;;;;;;;30.55;63.18;101035.09;5080709;28;70476;-37
2022/09/08 04:13:32;;;;;;;8.13;2.47;;;;;;;30.57;62.53;101021.34;5070478;27;67033;-37
2022/09/08 04:16:04;;;;;;;9.32;2.00;;;;;;;30.59;62.74;101020.09;5081803;27;70860;-38
2022/09/08 04:18:38;;;;;;;5.53;1.95;;;;;;;30.48;62.77;100991.81;5074762;27;66889;-33
2022/09/08 04:21:11;;;;;;;4.68;2.33;;;;;;;30.63;62.97;101007.78;5069652;28;70753;-35
2022/09/08 04:23:43;;;;;;;3.85;2.15;;;;;;;30.57;62.54;100989.69;5074018;28;65921;-34
2022/09/08 04:26:15;;;;;;;8.27;2.70;;;;;;;30.65;62.74;101002.97;5081142;27;70757;-34
2022/09/08 04:28:48;;;;;;;11.45;2.33;;;;;;;30.68;62.76;100988.19;5081472;28;67028;-34
2022/09/08 04:31:20;;;;;;;2.85;1.88;;;;;;;30.70;62.58;100981.50;5075873;28;70020;-33
2022/09/08 04:33:55;;;;;;;8.57;1.95;;;;;;;30.63;62.67;100964.47;5073566;28;66431;-34
2022/09/08 04:36:28;;;;;;;3.72;2.28;;;;;;;30.75;62.46;100969.19;5069381;28;70525;-37
2022/09/08 04:39:01;;;;;;;4.60;2.10;;;;;;;30.77;62.49;100961.69;5081178;28;67163;-33
2022/09/08 04:41:34;;;;;;;10.63;2.13;;;;;;;30.78;62.42;100958.72;5082321;28;70400;-36
2022/09/08 04:44:11;;;;;;;2.28;1.70;;;;;;;30.78;62.61;100957.91;5082155;27;66595;-35
2022/09/08 04:46:43;;;;;;;2.42;1.90;;;;;;;30.81;62.61;100957.50;5076290;27;70886;-33
2022/09/08 04:49:16;;;;;;;3.28;1.90;;;;;;;30.80;62.56;100945.03;5080433;28;67062;-35
2022/09/08 04:51:52;;;;;;;3.75;2.00;;;;;;;30.85;62.22;100945.22;5070922;28;70711;-34
2022/09/08 04:54:24;;;;;;;3.15;1.52;;;;;;;30.89;62.71;100943.69;5079512;28;66839;-34
2022/09/08 04:56:56;;;;;;;2.95;2.00;;;;;;;30.89;62.21;100943.69;5078851;27;70624;-34
2022/09/08 04:59:28;;;;;;;2.65;1.48;;;;;;;30.92;62.20;100927.00;5077832;28;67124;-34
2022/09/08 05:02:01;;;;;;;3.63;1.50;;;;;;;30.93;62.79;100917.84;5066860;28;70864;-33
2022/09/08 05:04:32;;;;;;;;;;;;;;;30.65;62.77;100923.63;5062788;28;66393;-35
2022/09/08 05:07:05;;;;;;;3.38;1.40;;;;;;;30.61;62.61;100858.25;5076302;28;70284;-34
2022/09/08 05:09:37;;;;;;;3.13;1.63;;;;;;;30.98;62.47;100907.19;5077717;28;66240;-36
2022/09/08 05:12:09;;;;;;;2.05;1.55;;;;;;;30.94;62.50;100892.41;5076493;28;70218;-35
2022/09/08 05:14:41;;;;;;;5.05;1.67;;;;;;;31.01;62.64;100890.50;5066061;28;66861;-34
2022/09/08 05:17:13;;;;;;;1.98;1.27;;;;;;;30.99;62.35;100889.88;5078916;28;70947;-35
2022/09/08 05:19:52;;;;;;;2.40;1.38;;;;;;;30.97;62.23;100875.72;5081887;27;66010;-34
2022/09/08 05:22:24;;;;;;;1.90;1.45;;;;;;;31.02;62.19;100884.00;5077473;28;70901;-35
2022/09/08 05:24:56;;;;;;;;;;;;;;;30.75;62.81;100885.25;5076488;27;66873;-34
2022/09/08 05:27:28;;;;;;;2.72;1.77;;;;;;;31.02;62.46;100889.44;5079428;28;70829;-35
2022/09/08 05:30:00;;;;;;;7.72;1.20;;;;;;;31.06;62.31;100885.22;5076668;28;66664;-35
2022/09/08 05:32:35;;;;;;;3.80;1.70;;;;;;;31.05;62.28;100880.03;5077953;27;71187;-33
2022/09/08 05:35:07;;;;;;;1.25;1.15;;;;;;;31.09;62.22;100890.22;5071912;28;66848;-36
2022/09/08 05:37:41;;;;;;;10.88;1.50;;;;;;;31.10;62.32;100872.91;5080618;28;70259;-34
2022/09/08 05:40:13;;;;;;;2.10;1.33;;;;;;;31.10;62.59;100870.19;5071580;28;67524;-36
2022/09/08 05:42:45;;;;;;;3.92;1.42;;;;;;;31.13;62.19;100863.50;5068975;28;70536;-34
2022/09/08 05:45:17;;;;;;;1.65;1.45;;;;;;;31.13;62.51;100852.66;5081272;28;67155;-33
2022/09/08 05:47:49;;;;;;;;;;;;;;;30.86;62.50;100857.47;5079119;28;70507;-34
2022/09/08 05:50:23;;;;;;;1.65;1.25;;;;;;;31.13;61.88;100850.78;5081695;28;43360;-33
2022/09/08 05:52:56;;;;;;;2.30;1.20;;;;;;;31.17;62.11;100853.84;5079370;27;70937;-34
2022/09/08 05:55:28;;;;;;;3.72;1.42;;;;;;;31.14;62.02;100830.75;5081002;28;66501;-34
2022/09/08 05:58:01;;;;;;;3.08;1.60;;;;;;;31.23;62.04;100835.88;5066053;28;70705;-36
2022/09/08 06:00:57;;;;;;;2.88;1.75;;;;;;;31.24;62.00;100832.13;5077889;28;67046;-34
2022/09/08 06:03:29;;;;;;;4.45;1.50;;;;;;;31.26;62.00;100816.47;5078932;28;71305;-34
2022/09/08 06:06:05;;;;;;;4.53;2.13;;;;;;;30.99;62.03;100778.00;5068630;28;65964;-34
2022/09/08 06:08:39;;;;;;;5.80;1.80;;;;;;;30.85;62.00;100742.91;5068262;27;70509;-34
2022/09/08 06:11:12;;;;;;;5.95;2.10;;;;;;;31.19;61.99;100796.75;5063600;28;66937;-34
2022/09/08 06:13:45;;;;;;;1.95;1.55;;;;;;;31.28;61.85;100803.53;5064484;28;70481;-34
2022/09/08 06:16:17;;;;;;;3.47;1.75;;;;;;;31.28;62.21;100796.22;5064635;28;66099;-34
2022/09/08 06:18:50;;;;;;;3.38;1.67;;;;;;;31.34;61.85;100800.75;5070395;28;70928;-35
2022/09/08 06:21:25;;;;;;;1.60;1.33;;;;;;;31.39;61.90;100806.34;5051110;28;66870;-34
2022/09/08 06:24:00;;;;;;;4.53;1.83;;;;;;;30.87;62.49;100712.88;5068770;28;70348;-35
2022/09/08 06:26:47;;;;;;;2.88;1.42;;;;;;;31.36;61.67;100781.56;5094395;27;67105;-33
2022/09/08 06:29:27;;;;;;;5.45;1.98;;;;;;;31.41;61.89;100779.03;5060294;28;70654;-35
2022/09/08 06:32:03;;;;;;;3.70;1.88;;;;;;;31.02;61.85;100709.81;5066258;28;67458;-34
2022/09/08 06:34:41;;;;;;;4.68;2.03;;;;;;;31.46;61.95;100778.34;5072250;27;70130;-34
2022/09/08 06:37:45;;;;;;;2.75;1.75;;;;;;;31.37;62.14;100777.78;5073604;28;66791;-33
2022/09/08 06:40:35;;;;;;;4.32;2.17;;;;;;;31.33;61.97;100760.31;5077491;28;70069;-35
2022/09/08 06:43:19;;;;;;;3.67;1.67;;;;;;;31.50;61.77;100769.50;5071780;27;66237;-35
2022/09/08 06:45:53;;;;;;;5.00;1.80;;;;;;;31.29;62.14;100729.31;5060094;28;70909;-34
2022/09/08 06:48:31;;;;;;;4.97;2.30;;;;;;;31.39;61.78;100751.31;5079186;27;66678;-34
2022/09/08 06:51:17;;;;;;;10.07;1.98;;;;;;;31.55;61.50;100758.00;5075847;28;71018;-34
2022/09/08 06:54:01;;;;;;;5.03;1.65;;;;;;;31.58;61.38;100762.97;5068705;28;67152;-34
2022/09/08 06:56:42;;;;;;;3.97;2.00;;;;;;;31.59;61.39;100765.47;5074611;28;70698;-34
2022/09/08 06:59:43;;;;;;;5.75;2.28;;;;;;;31.60;61.45;100758.97;5076927;28;66952;-34
2022/09/08 07:02:37;;;;;;;8.40;2.15;;;;;;;31.56;61.42;100765.06;5076483;28;70628;-34
2022/09/08 07:05:31;;;;;;;6.60;1.85;;;;;;;31.62;61.51;100756.00;5077771;28;66885;-33
2022/09/08 07:08:29;;;;;;;11.23;2.42;;;;;;;31.53;60.94;100743.84;5077041;28;70717;-34
2022/09/08 07:11:17;;;;;;;8.80;2.10;;;;;;;31.68;61.52;100754.28;5076723;28;66219;-34
2022/09/08 07:14:17;;;;;;;7.25;2.30;;;;;;;31.24;61.11;100692.03;5074553;27;70352;-33
2022/09/08 07:16:59;;;;;;;2.72;1.77;;;;;;;31.64;61.37;100743.06;5070533;28;66116;-36
2022/09/08 07:19:48;;;;;;;2.22;1.48;;;;;;;31.30;61.02;100685.72;5075657;28;71210;-33
2022/09/08 07:22:32;;;;;;;4.28;1.58;;;;;;;31.67;61.38;100755.34;5075062;28;67324;-33
2022/09/08 07:25:22;;;;;;;4.95;1.80;;;;;;;31.73;61.21;100754.41;5077203;28;71049;-34
2022/09/08 07:28:25;;;;;;;16.38;3.03;;;;;;;31.65;61.18;100746.59;5073999;27;66430;-33
2022/09/08 07:31:05;;;;;;;12.38;2.53;;;;;;;31.30;61.52;100677.56;5066098;28;70629;-32
2022/09/08 07:33:41;;;;;;;5.13;2.00;;;;;;;31.21;62.00;100656.47;5078938;28;65378;-34
2022/09/08 07:36:51;;;;;;;19.50;3.50;;;;;;;31.67;61.76;100734.47;5067619;28;70824;-33
2022/09/08 07:39:28;;;;;;;14.02;2.95;;;;;;;31.75;61.69;100741.47;5078715;27;66265;-34
2022/09/08 07:42:02;;;;;;;14.38;3.47;;;;;;;31.77;61.27;100739.34;5079212;27;70699;-33
2022/09/08 07:44:40;;;;;;;16.80;2.65;;;;;;;31.43;60.96;100673.91;5077368;28;66971;-34
2022/09/08 07:47:24;;;;;;;20.25;2.95;;;;;;;31.80;61.23;100722.63;5072705;28;70306;-34
2022/09/08 07:50:03;;;;;;;9.55;2.80;;;;;;;31.80;61.56;100722.63;5068178;28;66040;-35
2022/09/08 07:53:07;;;;;;;11.95;2.50;;;;;;;31.72;61.54;100726.47;5067655;28;70687;-34
2022/09/08 07:55:43;;;;;;;4.43;2.47;;;;;;;31.72;61.18;100704.78;5068820;27;66839;-34
2022/09/08 07:58:15;;;;;;;9.63;2.63;;;;;;;31.81;61.58;100708.00;5071772;28;70788;-34
2022/09/08 08:01:11;;;;;;;14.40;3.03;;;;;;;31.75;61.18;100714.34;5078260;28;67504;-34
2022/09/08 08:03:50;;;;;;;12.52;3.05;;;;;;;31.81;61.24;100708.00;5080150;28;70844;-34
2022/09/08 08:06:44;;;;;;;7.85;2.90;;;;;;;31.30;61.32;100625.25;5079725;27;66896;-36
2022/09/08 08:09:54;;;;;;;9.73;2.55;;;;;;;31.85;61.33;100703.78;5076365;28;70887;-33
2022/09/08 08:12:51;;;;;;;10.77;3.00;;;;;;;31.77;61.61;100702.22;5036596;28;65513;-34
2022/09/08 08:15:46;;;;;;;10.25;2.25;;;;;;;31.87;61.76;100701.63;5039977;28;70734;-33
2022/09/08 08:18:50;;;;;;;10.77;3.35;;;;;;;31.82;61.43;100694.22;5071579;28;66543;-34
2022/09/08 08:21:47;;;;;;;3.28;2.33;;;;;;;31.34;61.55;100626.44;5076670;28;70695;-34
2022/09/08 08:24:47;;;;;;;11.38;2.63;;;;;;;31.77;61.83;100695.97;5081144;28;66509;-34
2022/09/08 08:27:36;;;;;;;9.10;3.17;;;;;;;31.91;61.49;100685.75;5079260;28;69861;-34
2022/09/08 08:30:22;;;;;;;6.22;3.10;;;;;;;31.42;61.17;100601.75;5076419;28;67033;-34
2022/09/08 08:33:10;;;;;;;4.97;2.47;;;;;;;31.61;61.33;100622.31;5077389;28;70624;-34
2022/09/08 08:36:00;;;;;;;8.63;3.05;;;;;;;31.74;61.49;100631.34;5078825;28;66841;-33
2022/09/08 08:38:44;;;;;;;5.05;2.88;;;;;;;32.03;61.22;100676.59;5078327;28;70497;-33
2022/09/08 08:41:40;;;;;;;10.45;2.60;;;;;;;32.05;61.37;100666.34;5078987;28;66389;-33
2022/09/08 08:45:02;;;;;;;8.65;2.53;;;;;;;32.02;61.21;100655.94;5081755;27;69283;-34
2022/09/08 08:48:00;;;;;;;3.67;2.72;;;;;;;32.13;61.45;100657.03;5080033;28;67217;-35
2022/09/08 08:51:16;;;;;;;3.42;2.80;;;;;;;32.09;61.24;100655.00;5080083;28;70618;-34
2022/09/08 08:53:57;;;;;;;3.92;2.78;;;;;;;32.18;61.16;100653.59;5078972;28;66092;-34
2022/09/08 08:56:43;;;;;;;7.25;2.65;;;;;;;32.13;61.00;100635.31;5067768;28;70877;-34
2022/09/08 08:59:51;;;;;;;5.65;2.78;;;;;;;32.24;61.17;100647.25;5072191;28;66815;-36
2022/09/08 09:02:45;;;;;;;3.47;2.65;;;;;;;32.24;60.91;100628.25;5070081;28;71326;-34
2022/09/08 09:05:45;;;;;;;5.82;2.35;;;;;;;32.27;61.23;100642.16;5069868;28;66302;-34
2022/09/08 09:08:44;;;;;;;3.42;2.63;;;;;;;31.93;61.30;100586.81;5069327;28;71149;-33
2022/09/08 09:11:54;;;;;;;3.30;3.00;;;;;;;31.77;61.20;100544.09;5073968;27;66160;-34
2022/09/08 09:14:42;;;;;;;4.57;3.13;;;;;;;32.34;60.98;100631.19;5073604;27;70141;-36
2022/09/08 09:17:47;;;;;;;8.20;2.65;;;;;;;31.98;61.19;100561.69;5076650;28;66884;-34
2022/09/08 09:20:29;;;;;;;5.40;3.05;;;;;;;32.45;61.20;100633.06;5081044;28;71167;-33
2022/09/08 09:23:31;;;;;;;4.00;2.95;;;;;;;32.32;60.83;100622.47;5071387;28;66943;-34
2022/09/08 09:26:17;;;;;;;6.05;2.78;;;;;;;32.44;60.67;100631.44;5054080;27;70070;-34
2022/09/08 09:29:16;;;;;;;10.20;2.70;;;;;;;32.41;60.74;100621.03;5066956;28;66901;-34
2022/09/08 09:32:09;;;;;;;6.07;2.78;;;;;;;32.51;60.21;100625.88;5078316;28;69951;-35
2022/09/08 09:34:54;;;;;;;3.80;3.00;;;;;;;32.52;60.33;100632.16;5076409;27;67023;-35
2022/09/08 09:37:53;;;;;;;4.18;2.95;;;;;;;32.42;61.39;100635.44;5078981;28;70687;-35
2022/09/08 09:40:43;;;;;;;5.40;3.90;;;;;;;31.88;62.23;100570.41;5075109;28;66927;-35
2022/09/08 09:44:11;;;;;;;7.88;3.33;;;;;;;31.67;63.28;100573.66;5079629;28;69487;-34
2022/09/08 09:47:04;;;;;;;11.27;3.50;;;;;;;32.11;63.80;100663.75;5070352;28;66973;-35
2022/09/08 09:50:04;;;;;;;7.05;4.13;;;;;;;32.17;63.67;100662.81;5079107;28;70966;-33
2022/09/08 09:52:54;;;;;;;6.43;3.78;;;;;;;32.11;63.74;100663.75;5076591;28;67068;-35
2022/09/08 09:56:07;;;;;;;3.53;3.22;;;;;;;31.99;64.04;100671.88;5076942;28;70578;-35
2022/09/08 09:59:14;;;;;;;13.13;4.97;;;;;;;31.94;64.52;100686.13;5078971;27;65826;-36
2022/09/08 10:02:13;;;;;;;8.65;2.92;;;;;;;31.93;64.30;100683.63;5076426;28;70848;-36
2022/09/08 10:05:19;;;;;;;13.70;3.20;;;;;;;31.48;64.48;100617.13;5076414;28;67141;-35
2022/09/08 10:08:30;;;;;;;7.05;3.22;;;;;;;31.85;64.35;100682.06;5075878;28;70700;-39
2022/09/08 10:11:29;;;;;;;3.28;2.78;;;;;;;31.88;64.29;100681.59;5073627;28;66236;-35
2022/09/08 10:14:22;;;;;;;4.15;2.22;;;;;;;31.87;64.05;100666.38;5075200;28;70938;-35
2022/09/08 10:17:05;;;;;;;4.47;3.17;;;;;;;31.43;64.13;100603.44;5077230;28;66381;-36
2022/09/08 10:19:58;;;;;;;4.30;2.53;;;;;;;31.86;63.98;100667.44;5069137;28;70720;-34
2022/09/08 10:23:03;;;;;;;5.47;3.30;;;;;;;31.79;63.63;100677.59;5072784;27;67043;-34
2022/09/08 10:26:06;;;;;;;3.17;2.72;;;;;;;31.75;63.42;100670.94;5069529;28;70595;-36
2022/09/08 10:29:08;;;;;;;3.85;2.90;;;;;;;31.78;63.33;100675.91;5062738;28;66698;-37
2022/09/08 10:31:42;;;;;;;4.63;2.88;;;;;;;31.79;63.72;100689.25;5068133;28;70547;-35
2022/09/08 10:34:37;;;;;;;13.70;3.10;;;;;;;31.79;64.23;100700.09;5077412;28;66919;-34
2022/09/08 10:37:36;;;;;;;6.85;3.33;;;;;;;31.74;64.37;100702.66;5077535;28;70192;-35
2022/09/08 10:40:32;;;;;;;7.72;3.58;;;;;;;31.75;64.30;100715.16;5078189;28;66990;-35
2022/09/08 10:43:36;;;;;;;4.57;3.55;;;;;;;31.71;64.38;100715.88;5077736;28;71072;-37
2022/09/08 10:46:29;;;;;;;10.30;3.05;;;;;;;31.74;64.56;100720.84;5078036;28;66755;-40
2022/09/08 10:49:16;;;;;;;10.85;3.45;;;;;;;31.78;64.43;100724.72;5070514;28;70689;-36
2022/09/08 10:52:26;;;;;;;6.18;3.20;;;;;;;31.72;65.23;100731.06;5067371;28;66814;-36
2022/09/08 10:55:44;;;;;;;15.85;3.80;;;;;;;31.64;66.05;100728.69;5063169;28;69925;-36
2022/09/08 10:58:51;;;;;;;10.88;3.30;;;;;;;30.88;65.37;100595.38;5033258;27;66958;-35
2022/09/08 11:01:35;;;;;;;8.88;4.22;;;;;;;31.82;64.55;100734.06;5074864;28;70321;-36
2022/09/08 11:04:24;;;;;;;8.60;3.50;;;;;;;31.47;64.37;100685.94;5077616;28;66824;-35
2022/09/08 11:07:22;;;;;;;4.82;3.70;;;;;;;31.93;64.25;100760.44;5077441;27;70097;-37
2022/09/08 11:10:36;;;;;;;6.05;3.10;;;;;;;31.90;64.13;100776.31;5062015;28;66953;-36
2022/09/08 11:13:25;;;;;;;7.20;3.78;;;;;;;31.50;63.90;100709.06;5054940;27;69964;-36
2022/09/08 11:16:51;;;;;;;3.53;3.13;;;;;;;31.93;63.71;100775.88;5076295;28;67248;-35
2022/09/08 11:19:40;;;;;;;8.88;3.53;;;;;;;31.93;63.70;100787.56;4994401;28;70779;-35
2022/09/08 11:22:23;;;;;;;5.22;4.20;;;;;;;31.97;63.55;100799.59;4996125;28;66916;-35
2022/09/08 11:25:02;;;;;;;22.67;15.80;;;;;;;31.99;63.47;100819.19;5056655;28;71005;-36
2022/09/08 11:28:10;;;;;;;53.15;35.95;;;;;;;31.83;63.03;100804.34;5070678;28;65882;-36
2022/09/08 11:31:04;;;;;;;44.35;34.40;;;;;;;31.91;63.46;100832.22;5067896;27;71018;-35
2022/09/08 11:34:19;;;;;;;45.95;32.33;;;;;;;31.86;63.49;100841.03;5071488;28;65979;-37
2022/09/08 11:37:01;;;;;;;33.83;24.27;;;;;;;31.94;63.60;100832.63;5072569;28;69515;-37
2022/09/08 11:39:42;;;;;;;38.45;27.23;;;;;;;31.92;63.32;100834.72;5081069;28;67251;-36
2022/09/08 11:42:17;;;;;;;33.08;24.25;;;;;;;31.97;63.61;100834.88;5075652;28;70779;-36
2022/09/08 11:45:09;;;;;;;33.95;22.73;;;;;;;31.88;63.55;100838.94;5080900;27;66928;-35
2022/09/08 11:48:00;;;;;;;33.10;23.98;;;;;;;31.94;63.56;100851.63;5079591;28;70747;-34
2022/09/08 11:50:37;;;;;;;34.08;22.83;;;;;;;31.97;63.61;100853.88;5078490;27;66698;-37
2022/09/08 11:53:46;;;;;;;29.40;22.05;;;;;;;31.84;63.80;100848.56;5071032;28;70738;-39
2022/09/08 11:56:44;;;;;;;26.67;20.95;;;;;;;31.93;63.87;100866.25;5075820;28;67346;-36
2022/09/08 11:59:49;;;;;;;26.75;19.85;;;;;;;31.57;63.89;100810.94;5082270;27;70431;-39
2022/09/08 12:02:30;;;;;;;27.08;19.42;;;;;;;31.91;63.84;100865.63;5078980;28;66149;-36
2022/09/08 12:05:20;;;;;;;22.92;17.58;;;;;;;31.81;64.66;100876.16;5069334;28;70821;-35
2022/09/08 12:08:22;;;;;;;25.42;15.80;;;;;;;31.89;64.19;100883.16;5073914;28;67017;-36
2022/09/08 12:11:33;;;;;;;22.03;15.43;;;;;;;31.79;64.84;100883.72;5079027;28;70343;-37
2022/09/08 12:14:41;;;;;;;28.33;14.85;;;;;;;31.15;64.97;100780.94;5064844;28;66260;-38
2022/09/08 12:17:51;;;;;;;14.80;12.38;;;;;;;31.69;65.02;100888.81;5094970;27;70690;-35
2022/09/08 12:20:38;;;;;;;22.83;12.93;;;;;;;31.84;64.37;100891.97;5077273;28;66308;-39
2022/09/08 12:23:32;;;;;;;13.07;11.73;;;;;;;31.84;64.17;100891.97;5076137;28;70350;-35
2022/09/08 12:26:23;;;;;;;18.70;11.77;;;;;;;31.74;64.31;100888.97;5073235;27;66067;-35
2022/09/08 12:28:56;;;;;;;18.27;11.13;;;;;;;31.81;64.13;100884.28;5061361;28;70342;-36
2022/09/08 12:31:54;;;;;;;33.55;10.90;;;;;;;31.64;64.10;100877.81;5071125;28;66706;-36
2022/09/08 12:34:51;;;;;;;18.02;10.50;;;;;;;31.65;64.58;100899.31;5067137;28;71113;-36
2022/09/08 12:37:50;;;;;;;21.15;8.98;;;;;;;31.66;64.45;100905.53;5073807;28;66683;-37
2022/09/08 12:40:57;;;;;;;19.52;9.43;;;;;;;31.61;64.07;100926.00;5079341;28;70814;-37
2022/09/08 12:43:44;;;;;;;19.15;9.50;;;;;;;31.63;64.52;100909.53;5075843;28;65920;-39
2022/09/08 12:46:53;;;;;;;12.05;8.85;;;;;;;31.64;64.17;100923.91;5052035;28;70230;-37